sensor_id;sensor_type;location;lat;lon;timestamp;P1;durP1;ratioP1;P2;durP2;ratioP2
17197;SDS011;8715;51.010;6.812;2023-05-10T00:01:07;968.97;;;883.78;;
17197;SDS011;8715;51.010;6.812;2023-05-10T00:03:33;968.05;;;882.55;;
17197;SDS011;8715;51.010;6.812;2023-05-10T00:06:00;971.40;;;885.55;;
17197;SDS011;8715;51.010;6.812;2023-05-10T00:08:26;968.80;;;883.20;;
17197;SDS011;8715;51.010;6.812;2023-05-10T00:10:52;967.78;;;882.00;;
17197;SDS011;8715;51.010;6.812;2023-05-10T00:13:19;962.38;;;876.40;;
17197;SDS011;8715;51.010;6.812;2023-05-10T00:15:47;966.53;;;881.25;;
17197;SDS011;8715;51.010;6.812;2023-05-10T00:18:13;967.22;;;881.78;;
17197;SDS011;8715;51.010;6.812;2023-05-10T00:20:39;968.97;;;883.70;;
17197;SDS011;8715;51.010;6.812;2023-05-10T00:23:06;966.50;;;880.80;;
17197;SDS011;8715;51.010;6.812;2023-05-10T00:25:32;967.00;;;881.35;;
17197;SDS011;8715;51.010;6.812;2023-05-10T00:27:58;971.90;;;885.80;;
17197;SDS011;8715;51.010;6.812;2023-05-10T00:30:26;971.20;;;884.83;;
17197;SDS011;8715;51.010;6.812;2023-05-10T00:32:54;970.58;;;884.05;;
17197;SDS011;8715;51.010;6.812;2023-05-10T00:35:20;970.45;;;884.08;;
17197;SDS011;8715;51.010;6.812;2023-05-10T00:37:47;973.78;;;887.40;;
17197;SDS011;8715;51.010;6.812;2023-05-10T00:40:13;970.05;;;884.38;;
17197;SDS011;8715;51.010;6.812;2023-05-10T00:42:40;966.45;;;880.42;;
17197;SDS011;8715;51.010;6.812;2023-05-10T00:45:06;969.15;;;883.85;;
17197;SDS011;8715;51.010;6.812;2023-05-10T00:47:33;966.42;;;880.88;;
17197;SDS011;8715;51.010;6.812;2023-05-10T00:50:01;970.97;;;884.55;;
17197;SDS011;8715;51.010;6.812;2023-05-10T00:52:27;971.13;;;885.05;;
17197;SDS011;8715;51.010;6.812;2023-05-10T00:54:54;969.85;;;884.08;;
17197;SDS011;8715;51.010;6.812;2023-05-10T00:57:20;967.83;;;882.47;;
17197;SDS011;8715;51.010;6.812;2023-05-10T00:59:47;970.47;;;884.33;;
17197;SDS011;8715;51.010;6.812;2023-05-10T01:02:14;966.13;;;880.22;;
17197;SDS011;8715;51.010;6.812;2023-05-10T01:04:40;967.55;;;881.80;;
17197;SDS011;8715;51.010;6.812;2023-05-10T01:07:08;966.63;;;881.17;;
17197;SDS011;8715;51.010;6.812;2023-05-10T01:09:35;971.80;;;885.55;;
17197;SDS011;8715;51.010;6.812;2023-05-10T01:12:01;960.83;;;874.35;;
17197;SDS011;8715;51.010;6.812;2023-05-10T01:14:28;962.33;;;875.83;;
17197;SDS011;8715;51.010;6.812;2023-05-10T01:16:56;959.95;;;873.70;;
17197;SDS011;8715;51.010;6.812;2023-05-10T01:19:23;966.20;;;881.03;;
17197;SDS011;8715;51.010;6.812;2023-05-10T01:21:53;967.53;;;881.35;;
17197;SDS011;8715;51.010;6.812;2023-05-10T01:30:05;962.80;;;878.60;;
17197;SDS011;8715;51.010;6.812;2023-05-10T01:32:36;965.40;;;880.72;;
17197;SDS011;8715;51.010;6.812;2023-05-10T01:35:07;963.88;;;879.20;;
17197;SDS011;8715;51.010;6.812;2023-05-10T01:37:41;965.47;;;880.72;;
17197;SDS011;8715;51.010;6.812;2023-05-10T01:40:08;965.28;;;881.47;;
17197;SDS011;8715;51.010;6.812;2023-05-10T01:42:36;963.53;;;879.25;;
17197;SDS011;8715;51.010;6.812;2023-05-10T01:45:07;956.35;;;872.10;;
17197;SDS011;8715;51.010;6.812;2023-05-10T01:47:39;963.13;;;879.50;;
17197;SDS011;8715;51.010;6.812;2023-05-10T01:50:08;960.85;;;877.28;;
17197;SDS011;8715;51.010;6.812;2023-05-10T01:52:36;961.40;;;877.63;;
17197;SDS011;8715;51.010;6.812;2023-05-10T01:55:05;958.50;;;873.45;;
17197;SDS011;8715;51.010;6.812;2023-05-10T01:57:32;964.08;;;879.83;;
17197;SDS011;8715;51.010;6.812;2023-05-10T01:59:59;965.50;;;881.17;;
17197;SDS011;8715;51.010;6.812;2023-05-10T02:02:25;965.75;;;881.60;;
17197;SDS011;8715;51.010;6.812;2023-05-10T02:04:54;955.70;;;871.90;;
17197;SDS011;8715;51.010;6.812;2023-05-10T02:07:22;964.47;;;880.42;;
17197;SDS011;8715;51.010;6.812;2023-05-10T02:09:49;965.25;;;880.92;;
17197;SDS011;8715;51.010;6.812;2023-05-10T02:12:16;962.22;;;878.55;;
17197;SDS011;8715;51.010;6.812;2023-05-10T02:14:43;965.92;;;881.60;;
17197;SDS011;8715;51.010;6.812;2023-05-10T02:17:10;960.38;;;877.03;;
17197;SDS011;8715;51.010;6.812;2023-05-10T02:19:38;963.88;;;879.90;;
17197;SDS011;8715;51.010;6.812;2023-05-10T02:22:07;959.78;;;874.63;;
17197;SDS011;8715;51.010;6.812;2023-05-10T02:24:34;965.67;;;881.17;;
17197;SDS011;8715;51.010;6.812;2023-05-10T02:27:00;965.85;;;881.47;;
17197;SDS011;8715;51.010;6.812;2023-05-10T02:29:28;968.13;;;882.85;;
17197;SDS011;8715;51.010;6.812;2023-05-10T02:31:54;964.97;;;880.67;;
17197;SDS011;8715;51.010;6.812;2023-05-10T02:34:21;963.03;;;879.15;;
17197;SDS011;8715;51.010;6.812;2023-05-10T02:36:48;967.38;;;882.72;;
17197;SDS011;8715;51.010;6.812;2023-05-10T02:39:16;964.88;;;880.08;;
17197;SDS011;8715;51.010;6.812;2023-05-10T02:41:44;964.95;;;881.13;;
17197;SDS011;8715;51.010;6.812;2023-05-10T02:44:12;965.95;;;881.33;;
17197;SDS011;8715;51.010;6.812;2023-05-10T02:46:40;963.97;;;879.20;;
17197;SDS011;8715;51.010;6.812;2023-05-10T02:49:07;966.38;;;881.53;;
17197;SDS011;8715;51.010;6.812;2023-05-10T02:51:35;967.83;;;882.75;;
17197;SDS011;8715;51.010;6.812;2023-05-10T02:54:03;969.78;;;884.70;;
17197;SDS011;8715;51.010;6.812;2023-05-10T02:56:35;963.45;;;879.10;;
17197;SDS011;8715;51.010;6.812;2023-05-10T02:59:02;962.35;;;878.42;;
17197;SDS011;8715;51.010;6.812;2023-05-10T03:01:28;969.72;;;884.55;;
17197;SDS011;8715;51.010;6.812;2023-05-10T03:03:55;969.78;;;884.22;;
17197;SDS011;8715;51.010;6.812;2023-05-10T03:06:21;964.13;;;879.70;;
17197;SDS011;8715;51.010;6.812;2023-05-10T03:08:48;963.60;;;878.85;;
17197;SDS011;8715;51.010;6.812;2023-05-10T03:11:16;966.50;;;881.38;;
17197;SDS011;8715;51.010;6.812;2023-05-10T03:13:56;966.30;;;881.08;;
17197;SDS011;8715;51.010;6.812;2023-05-10T03:16:29;967.25;;;882.55;;
17197;SDS011;8715;51.010;6.812;2023-05-10T03:19:01;969.15;;;884.22;;
17197;SDS011;8715;51.010;6.812;2023-05-10T03:21:28;967.38;;;882.25;;
17197;SDS011;8715;51.010;6.812;2023-05-10T03:23:57;960.28;;;874.40;;
17197;SDS011;8715;51.010;6.812;2023-05-10T03:26:25;969.40;;;883.83;;
17197;SDS011;8715;51.010;6.812;2023-05-10T03:28:53;969.20;;;883.42;;
17197;SDS011;8715;51.010;6.812;2023-05-10T03:31:20;971.00;;;885.05;;
17197;SDS011;8715;51.010;6.812;2023-05-10T03:33:47;958.80;;;872.88;;
17197;SDS011;8715;51.010;6.812;2023-05-10T03:36:14;970.53;;;884.83;;
17197;SDS011;8715;51.010;6.812;2023-05-10T03:38:40;966.13;;;880.67;;
17197;SDS011;8715;51.010;6.812;2023-05-10T03:41:06;968.35;;;882.00;;
17197;SDS011;8715;51.010;6.812;2023-05-10T03:43:33;968.92;;;882.40;;
17197;SDS011;8715;51.010;6.812;2023-05-10T03:46:02;970.72;;;884.25;;
17197;SDS011;8715;51.010;6.812;2023-05-10T03:48:29;969.30;;;883.00;;
17197;SDS011;8715;51.010;6.812;2023-05-10T03:50:55;968.95;;;882.50;;
17197;SDS011;8715;51.010;6.812;2023-05-10T03:53:21;970.83;;;884.17;;
17197;SDS011;8715;51.010;6.812;2023-05-10T03:55:48;975.90;;;888.50;;
17197;SDS011;8715;51.010;6.812;2023-05-10T03:58:14;969.50;;;883.25;;
17197;SDS011;8715;51.010;6.812;2023-05-10T04:00:41;974.70;;;887.47;;
17197;SDS011;8715;51.010;6.812;2023-05-10T04:03:11;970.55;;;883.75;;
17197;SDS011;8715;51.010;6.812;2023-05-10T04:05:37;970.50;;;883.80;;
17197;SDS011;8715;51.010;6.812;2023-05-10T04:08:04;970.70;;;883.78;;
17197;SDS011;8715;51.010;6.812;2023-05-10T04:10:31;971.45;;;884.33;;
17197;SDS011;8715;51.010;6.812;2023-05-10T04:12:57;964.60;;;877.17;;
17197;SDS011;8715;51.010;6.812;2023-05-10T04:15:24;970.72;;;883.95;;
17197;SDS011;8715;51.010;6.812;2023-05-10T04:17:50;973.25;;;886.38;;
17197;SDS011;8715;51.010;6.812;2023-05-10T04:20:18;970.45;;;883.53;;
17197;SDS011;8715;51.010;6.812;2023-05-10T04:22:44;969.10;;;883.60;;
17197;SDS011;8715;51.010;6.812;2023-05-10T04:25:11;971.15;;;884.92;;
17197;SDS011;8715;51.010;6.812;2023-05-10T04:27:37;969.97;;;883.50;;
17197;SDS011;8715;51.010;6.812;2023-05-10T04:30:04;970.15;;;884.03;;
17197;SDS011;8715;51.010;6.812;2023-05-10T04:32:31;968.65;;;882.30;;
17197;SDS011;8715;51.010;6.812;2023-05-10T04:34:57;969.08;;;883.05;;
17197;SDS011;8715;51.010;6.812;2023-05-10T04:37:25;968.47;;;882.33;;
17197;SDS011;8715;51.010;6.812;2023-05-10T04:39:52;960.53;;;874.20;;
17197;SDS011;8715;51.010;6.812;2023-05-10T04:42:18;966.38;;;879.40;;
17197;SDS011;8715;51.010;6.812;2023-05-10T04:44:44;972.20;;;886.22;;
17197;SDS011;8715;51.010;6.812;2023-05-10T04:47:11;968.63;;;882.55;;
17197;SDS011;8715;51.010;6.812;2023-05-10T04:49:38;971.03;;;884.38;;
17197;SDS011;8715;51.010;6.812;2023-05-10T04:52:04;970.38;;;884.13;;
17197;SDS011;8715;51.010;6.812;2023-05-10T04:54:32;970.13;;;883.85;;
17197;SDS011;8715;51.010;6.812;2023-05-10T04:56:59;968.40;;;882.03;;
17197;SDS011;8715;51.010;6.812;2023-05-10T04:59:26;967.08;;;881.83;;
17197;SDS011;8715;51.010;6.812;2023-05-10T05:01:52;970.97;;;884.75;;
17197;SDS011;8715;51.010;6.812;2023-05-10T05:04:18;969.25;;;883.42;;
17197;SDS011;8715;51.010;6.812;2023-05-10T05:06:45;971.38;;;885.17;;
17197;SDS011;8715;51.010;6.812;2023-05-10T05:09:11;967.60;;;882.28;;
17197;SDS011;8715;51.010;6.812;2023-05-10T05:11:39;968.40;;;882.40;;
17197;SDS011;8715;51.010;6.812;2023-05-10T05:14:05;971.38;;;885.63;;
17197;SDS011;8715;51.010;6.812;2023-05-10T05:16:32;968.97;;;883.03;;
17197;SDS011;8715;51.010;6.812;2023-05-10T05:18:59;969.45;;;883.20;;
17197;SDS011;8715;51.010;6.812;2023-05-10T05:21:25;969.13;;;882.65;;
17197;SDS011;8715;51.010;6.812;2023-05-10T05:23:52;972.85;;;886.08;;
17197;SDS011;8715;51.010;6.812;2023-05-10T05:26:18;971.85;;;885.47;;
17197;SDS011;8715;51.010;6.812;2023-05-10T05:28:46;971.97;;;885.58;;
17197;SDS011;8715;51.010;6.812;2023-05-10T05:31:13;970.03;;;883.72;;
17197;SDS011;8715;51.010;6.812;2023-05-10T05:33:40;972.28;;;885.47;;
17197;SDS011;8715;51.010;6.812;2023-05-10T05:36:06;971.70;;;884.92;;
17197;SDS011;8715;51.010;6.812;2023-05-10T05:38:32;973.63;;;886.00;;
17197;SDS011;8715;51.010;6.812;2023-05-10T05:40:59;971.65;;;884.65;;
17197;SDS011;8715;51.010;6.812;2023-05-10T05:43:25;972.83;;;885.95;;
17197;SDS011;8715;51.010;6.812;2023-05-10T05:45:53;968.75;;;881.53;;
17197;SDS011;8715;51.010;6.812;2023-05-10T05:48:20;968.50;;;881.78;;
17197;SDS011;8715;51.010;6.812;2023-05-10T05:50:46;968.35;;;882.05;;
17197;SDS011;8715;51.010;6.812;2023-05-10T05:53:13;974.72;;;887.22;;
17197;SDS011;8715;51.010;6.812;2023-05-10T05:55:39;969.63;;;882.83;;
17197;SDS011;8715;51.010;6.812;2023-05-10T05:58:05;972.90;;;885.85;;
17197;SDS011;8715;51.010;6.812;2023-05-10T06:00:32;974.72;;;887.75;;
17197;SDS011;8715;51.010;6.812;2023-05-10T06:02:59;965.35;;;877.75;;
17197;SDS011;8715;51.010;6.812;2023-05-10T06:05:26;973.88;;;886.38;;
17197;SDS011;8715;51.010;6.812;2023-05-10T06:07:53;968.97;;;883.08;;
17197;SDS011;8715;51.010;6.812;2023-05-10T06:10:19;969.97;;;883.53;;
17197;SDS011;8715;51.010;6.812;2023-05-10T06:12:45;972.20;;;885.45;;
17197;SDS011;8715;51.010;6.812;2023-05-10T06:15:12;975.95;;;888.42;;
17197;SDS011;8715;51.010;6.812;2023-05-10T06:17:38;970.85;;;884.28;;
17197;SDS011;8715;51.010;6.812;2023-05-10T06:20:07;967.55;;;880.83;;
17197;SDS011;8715;51.010;6.812;2023-05-10T06:22:34;973.67;;;886.70;;
17197;SDS011;8715;51.010;6.812;2023-05-10T06:25:00;968.25;;;881.70;;
17197;SDS011;8715;51.010;6.812;2023-05-10T06:27:27;972.35;;;885.55;;
17197;SDS011;8715;51.010;6.812;2023-05-10T06:29:53;968.35;;;881.78;;
17197;SDS011;8715;51.010;6.812;2023-05-10T06:32:20;973.67;;;886.38;;
17197;SDS011;8715;51.010;6.812;2023-05-10T06:34:46;969.22;;;883.10;;
17197;SDS011;8715;51.010;6.812;2023-05-10T06:37:14;968.05;;;881.85;;
17197;SDS011;8715;51.010;6.812;2023-05-10T06:39:40;967.08;;;880.67;;
17197;SDS011;8715;51.010;6.812;2023-05-10T06:42:07;961.53;;;874.78;;
17197;SDS011;8715;51.010;6.812;2023-05-10T06:44:33;972.72;;;885.63;;
17197;SDS011;8715;51.010;6.812;2023-05-10T06:46:59;973.65;;;886.85;;
17197;SDS011;8715;51.010;6.812;2023-05-10T06:49:26;971.85;;;884.58;;
17197;SDS011;8715;51.010;6.812;2023-05-10T06:51:52;965.95;;;878.65;;
17197;SDS011;8715;51.010;6.812;2023-05-10T06:54:20;963.45;;;876.63;;
17197;SDS011;8715;51.010;6.812;2023-05-10T06:56:46;971.15;;;884.15;;
17197;SDS011;8715;51.010;6.812;2023-05-10T06:59:12;971.20;;;884.30;;
17197;SDS011;8715;51.010;6.812;2023-05-10T07:01:40;969.50;;;883.60;;
17197;SDS011;8715;51.010;6.812;2023-05-10T07:04:06;970.80;;;884.25;;
17197;SDS011;8715;51.010;6.812;2023-05-10T07:06:33;973.58;;;886.38;;
17197;SDS011;8715;51.010;6.812;2023-05-10T07:08:59;970.95;;;883.35;;
17197;SDS011;8715;51.010;6.812;2023-05-10T07:11:27;976.00;;;888.25;;
17197;SDS011;8715;51.010;6.812;2023-05-10T07:13:54;971.58;;;884.58;;
17197;SDS011;8715;51.010;6.812;2023-05-10T07:16:20;969.25;;;882.58;;
17197;SDS011;8715;51.010;6.812;2023-05-10T07:18:47;971.65;;;884.33;;
17197;SDS011;8715;51.010;6.812;2023-05-10T07:21:13;976.40;;;888.53;;
17197;SDS011;8715;51.010;6.812;2023-05-10T07:23:39;974.47;;;886.55;;
17197;SDS011;8715;51.010;6.812;2023-05-10T07:26:06;971.42;;;883.42;;
17197;SDS011;8715;51.010;6.812;2023-05-10T07:28:33;974.78;;;886.53;;
17197;SDS011;8715;51.010;6.812;2023-05-10T07:31:02;972.50;;;884.40;;
17197;SDS011;8715;51.010;6.812;2023-05-10T07:33:28;977.22;;;888.88;;
17197;SDS011;8715;51.010;6.812;2023-05-10T07:35:55;971.15;;;882.15;;
17197;SDS011;8715;51.010;6.812;2023-05-10T07:38:21;980.45;;;890.65;;
17197;SDS011;8715;51.010;6.812;2023-05-10T07:40:48;977.85;;;888.42;;
17197;SDS011;8715;51.010;6.812;2023-05-10T07:43:14;975.55;;;886.50;;
17197;SDS011;8715;51.010;6.812;2023-05-10T07:45:42;976.65;;;887.63;;
17197;SDS011;8715;51.010;6.812;2023-05-10T07:48:08;971.65;;;883.80;;
17197;SDS011;8715;51.010;6.812;2023-05-10T07:50:35;981.33;;;890.95;;
17197;SDS011;8715;51.010;6.812;2023-05-10T07:53:01;974.45;;;885.50;;
17197;SDS011;8715;51.010;6.812;2023-05-10T07:55:27;977.00;;;888.03;;
17197;SDS011;8715;51.010;6.812;2023-05-10T07:57:54;978.10;;;888.42;;
17197;SDS011;8715;51.010;6.812;2023-05-10T08:00:20;981.15;;;891.20;;
17197;SDS011;8715;51.010;6.812;2023-05-10T08:02:48;972.85;;;884.15;;
17197;SDS011;8715;51.010;6.812;2023-05-10T08:05:14;981.70;;;891.67;;
17197;SDS011;8715;51.010;6.812;2023-05-10T08:07:41;976.20;;;887.15;;
17197;SDS011;8715;51.010;6.812;2023-05-10T08:10:08;984.55;;;894.05;;
17197;SDS011;8715;51.010;6.812;2023-05-10T08:12:34;971.80;;;882.17;;
17197;SDS011;8715;51.010;6.812;2023-05-10T08:15:01;976.67;;;887.47;;
17197;SDS011;8715;51.010;6.812;2023-05-10T08:17:27;978.67;;;889.25;;
17197;SDS011;8715;51.010;6.812;2023-05-10T08:19:55;977.92;;;888.83;;
17197;SDS011;8715;51.010;6.812;2023-05-10T08:22:21;979.42;;;890.20;;
17197;SDS011;8715;51.010;6.812;2023-05-10T08:24:47;976.03;;;886.92;;
17197;SDS011;8715;51.010;6.812;2023-05-10T08:27:14;976.72;;;888.33;;
17197;SDS011;8715;51.010;6.812;2023-05-10T08:29:40;981.92;;;891.83;;
17197;SDS011;8715;51.010;6.812;2023-05-10T08:32:07;978.58;;;889.05;;
17197;SDS011;8715;51.010;6.812;2023-05-10T08:34:33;972.38;;;882.50;;
17197;SDS011;8715;51.010;6.812;2023-05-10T08:37:01;974.58;;;885.72;;
17197;SDS011;8715;51.010;6.812;2023-05-10T08:39:27;979.65;;;890.58;;
17197;SDS011;8715;51.010;6.812;2023-05-10T08:41:53;981.20;;;891.25;;
17197;SDS011;8715;51.010;6.812;2023-05-10T08:44:24;974.20;;;885.05;;
17197;SDS011;8715;51.010;6.812;2023-05-10T08:46:50;974.60;;;885.63;;
17197;SDS011;8715;51.010;6.812;2023-05-10T08:49:18;979.72;;;889.60;;
17197;SDS011;8715;51.010;6.812;2023-05-10T08:51:47;979.95;;;890.38;;
17197;SDS011;8715;51.010;6.812;2023-05-10T08:54:17;969.88;;;880.08;;
17197;SDS011;8715;51.010;6.812;2023-05-10T08:56:43;977.00;;;887.42;;
17197;SDS011;8715;51.010;6.812;2023-05-10T08:59:10;979.63;;;889.55;;
17197;SDS011;8715;51.010;6.812;2023-05-10T09:01:38;978.92;;;887.88;;
17197;SDS011;8715;51.010;6.812;2023-05-10T09:04:05;983.30;;;891.67;;
17197;SDS011;8715;51.010;6.812;2023-05-10T09:06:31;981.10;;;889.90;;
17197;SDS011;8715;51.010;6.812;2023-05-10T09:08:59;984.72;;;893.15;;
17197;SDS011;8715;51.010;6.812;2023-05-10T09:11:27;984.38;;;893.03;;
17197;SDS011;8715;51.010;6.812;2023-05-10T09:16:21;979.95;;;889.70;;
17197;SDS011;8715;51.010;6.812;2023-05-10T09:18:47;976.67;;;886.03;;
17197;SDS011;8715;51.010;6.812;2023-05-10T09:21:14;982.60;;;891.95;;
17197;SDS011;8715;51.010;6.812;2023-05-10T09:23:42;981.72;;;889.10;;
17197;SDS011;8715;51.010;6.812;2023-05-10T09:26:08;983.53;;;891.47;;
17197;SDS011;8715;51.010;6.812;2023-05-10T09:28:49;983.03;;;890.35;;
17197;SDS011;8715;51.010;6.812;2023-05-10T09:31:16;988.25;;;895.90;;
17197;SDS011;8715;51.010;6.812;2023-05-10T09:33:43;986.90;;;894.92;;
17197;SDS011;8715;51.010;6.812;2023-05-10T09:36:10;978.45;;;885.53;;
17197;SDS011;8715;51.010;6.812;2023-05-10T09:38:44;988.15;;;894.90;;
17197;SDS011;8715;51.010;6.812;2023-05-10T09:41:15;989.58;;;896.25;;
17197;SDS011;8715;51.010;6.812;2023-05-10T09:43:43;988.47;;;895.10;;
17197;SDS011;8715;51.010;6.812;2023-05-10T09:46:09;991.42;;;897.17;;
17197;SDS011;8715;51.010;6.812;2023-05-10T09:48:39;988.22;;;895.03;;
17197;SDS011;8715;51.010;6.812;2023-05-10T09:51:07;992.20;;;898.22;;
17197;SDS011;8715;51.010;6.812;2023-05-10T09:53:33;990.85;;;896.78;;
17197;SDS011;8715;51.010;6.812;2023-05-10T09:56:00;992.22;;;897.20;;
17197;SDS011;8715;51.010;6.812;2023-05-10T09:58:26;992.25;;;897.50;;
17197;SDS011;8715;51.010;6.812;2023-05-10T10:00:54;995.72;;;900.40;;
17197;SDS011;8715;51.010;6.812;2023-05-10T10:03:21;996.05;;;900.63;;
17197;SDS011;8715;51.010;6.812;2023-05-10T10:05:47;992.70;;;897.20;;
17197;SDS011;8715;51.010;6.812;2023-05-10T10:08:14;995.13;;;898.80;;
17197;SDS011;8715;51.010;6.812;2023-05-10T10:10:41;994.15;;;898.15;;
17197;SDS011;8715;51.010;6.812;2023-05-10T10:13:09;995.60;;;899.55;;
17197;SDS011;8715;51.010;6.812;2023-05-10T10:15:35;995.25;;;899.08;;
17197;SDS011;8715;51.010;6.812;2023-05-10T10:18:03;999.97;;;902.47;;
17197;SDS011;8715;51.010;6.812;2023-05-10T10:20:31;993.65;;;896.08;;
17197;SDS011;8715;51.010;6.812;2023-05-10T10:22:57;999.33;;;902.15;;
17197;SDS011;8715;51.010;6.812;2023-05-10T10:25:23;998.38;;;901.58;;
17197;SDS011;8715;51.010;6.812;2023-05-10T10:27:56;996.83;;;899.97;;
17197;SDS011;8715;51.010;6.812;2023-05-10T10:30:25;1002.53;;;904.58;;
17197;SDS011;8715;51.010;6.812;2023-05-10T10:33:01;1005.95;;;907.78;;
17197;SDS011;8715;51.010;6.812;2023-05-10T10:35:35;1001.28;;;903.00;;
17197;SDS011;8715;51.010;6.812;2023-05-10T10:38:02;1000.03;;;902.25;;
17197;SDS011;8715;51.010;6.812;2023-05-10T10:40:29;999.03;;;901.33;;
17197;SDS011;8715;51.010;6.812;2023-05-10T10:42:56;999.17;;;901.63;;
17197;SDS011;8715;51.010;6.812;2023-05-10T10:45:23;1004.40;;;905.55;;
17197;SDS011;8715;51.010;6.812;2023-05-10T10:47:53;1001.72;;;902.75;;
17197;SDS011;8715;51.010;6.812;2023-05-10T10:50:19;999.25;;;901.00;;
17197;SDS011;8715;51.010;6.812;2023-05-10T10:52:47;1003.95;;;905.05;;
17197;SDS011;8715;51.010;6.812;2023-05-10T10:55:15;1004.00;;;905.28;;
17197;SDS011;8715;51.010;6.812;2023-05-10T10:57:44;995.30;;;896.47;;
17197;SDS011;8715;51.010;6.812;2023-05-10T11:00:21;997.20;;;900.25;;
17197;SDS011;8715;51.010;6.812;2023-05-10T11:02:49;995.88;;;899.28;;
17197;SDS011;8715;51.010;6.812;2023-05-10T11:05:27;996.35;;;900.33;;
17197;SDS011;8715;51.010;6.812;2023-05-10T11:08:02;996.08;;;900.22;;
17197;SDS011;8715;51.010;6.812;2023-05-10T11:10:32;997.80;;;901.60;;
17197;SDS011;8715;51.010;6.812;2023-05-10T11:12:59;997.17;;;900.45;;
17197;SDS011;8715;51.010;6.812;2023-05-10T11:15:30;997.13;;;900.78;;
17197;SDS011;8715;51.010;6.812;2023-05-10T11:17:56;994.72;;;898.90;;
17197;SDS011;8715;51.010;6.812;2023-05-10T11:20:23;987.95;;;891.60;;
17197;SDS011;8715;51.010;6.812;2023-05-10T11:22:58;993.42;;;897.55;;
17197;SDS011;8715;51.010;6.812;2023-05-10T11:25:40;991.38;;;895.65;;
17197;SDS011;8715;51.010;6.812;2023-05-10T11:28:06;994.63;;;898.80;;
17197;SDS011;8715;51.010;6.812;2023-05-10T11:30:33;998.47;;;901.28;;
17197;SDS011;8715;51.010;6.812;2023-05-10T11:32:59;989.58;;;892.15;;
17197;SDS011;8715;51.010;6.812;2023-05-10T11:35:27;996.10;;;899.38;;
17197;SDS011;8715;51.010;6.812;2023-05-10T11:37:53;999.60;;;902.08;;
17197;SDS011;8715;51.010;6.812;2023-05-10T11:40:21;998.17;;;900.70;;
17197;SDS011;8715;51.010;6.812;2023-05-10T11:42:50;1000.67;;;902.38;;
17197;SDS011;8715;51.010;6.812;2023-05-10T11:45:17;992.88;;;894.08;;
17197;SDS011;8715;51.010;6.812;2023-05-10T11:47:43;1000.33;;;902.15;;
17197;SDS011;8715;51.010;6.812;2023-05-10T11:50:10;998.00;;;898.28;;
17197;SDS011;8715;51.010;6.812;2023-05-10T11:52:36;1009.65;;;908.92;;
17197;SDS011;8715;51.010;6.812;2023-05-10T11:55:03;1000.97;;;899.33;;
17197;SDS011;8715;51.010;6.812;2023-05-10T11:57:30;1009.75;;;908.40;;
17197;SDS011;8715;51.010;6.812;2023-05-10T11:59:58;1010.10;;;909.13;;
17197;SDS011;8715;51.010;6.812;2023-05-10T12:02:24;1011.38;;;909.53;;
17197;SDS011;8715;51.010;6.812;2023-05-10T12:04:51;1007.13;;;905.72;;
17197;SDS011;8715;51.010;6.812;2023-05-10T12:07:17;1011.35;;;909.15;;
17197;SDS011;8715;51.010;6.812;2023-05-10T12:09:44;1011.05;;;908.47;;
17197;SDS011;8715;51.010;6.812;2023-05-10T12:12:10;1009.83;;;907.47;;
17197;SDS011;8715;51.010;6.812;2023-05-10T12:14:41;1015.67;;;911.88;;
17197;SDS011;8715;51.010;6.812;2023-05-10T12:17:12;1015.92;;;911.28;;
17197;SDS011;8715;51.010;6.812;2023-05-10T12:19:39;1014.42;;;910.20;;
17197;SDS011;8715;51.010;6.812;2023-05-10T12:22:05;1011.88;;;908.30;;
17197;SDS011;8715;51.010;6.812;2023-05-10T12:24:33;1013.33;;;909.58;;
17197;SDS011;8715;51.010;6.812;2023-05-10T12:26:59;1005.90;;;902.00;;
17197;SDS011;8715;51.010;6.812;2023-05-10T12:29:26;1008.90;;;904.10;;
17197;SDS011;8715;51.010;6.812;2023-05-10T12:31:56;1012.60;;;908.83;;
17197;SDS011;8715;51.010;6.812;2023-05-10T12:34:25;1007.03;;;902.80;;
17197;SDS011;8715;51.010;6.812;2023-05-10T12:36:52;1011.30;;;908.25;;
17197;SDS011;8715;51.010;6.812;2023-05-10T12:39:18;1010.15;;;908.08;;
17197;SDS011;8715;51.010;6.812;2023-05-10T12:41:44;1010.92;;;908.17;;
17197;SDS011;8715;51.010;6.812;2023-05-10T12:44:11;1011.95;;;909.38;;
17197;SDS011;8715;51.010;6.812;2023-05-10T12:46:37;1005.88;;;902.42;;
17197;SDS011;8715;51.010;6.812;2023-05-10T12:49:03;1012.85;;;910.42;;
17197;SDS011;8715;51.010;6.812;2023-05-10T12:51:31;1009.95;;;907.40;;
17197;SDS011;8715;51.010;6.812;2023-05-10T12:53:58;1010.42;;;907.53;;
17197;SDS011;8715;51.010;6.812;2023-05-10T12:56:24;1010.85;;;908.15;;
17197;SDS011;8715;51.010;6.812;2023-05-10T12:58:50;1009.17;;;907.15;;
17197;SDS011;8715;51.010;6.812;2023-05-10T13:01:17;1010.40;;;908.30;;
17197;SDS011;8715;51.010;6.812;2023-05-10T13:03:43;1006.90;;;905.50;;
17197;SDS011;8715;51.010;6.812;2023-05-10T13:06:09;1011.40;;;909.30;;
17197;SDS011;8715;51.010;6.812;2023-05-10T13:08:37;1010.08;;;908.17;;
17197;SDS011;8715;51.010;6.812;2023-05-10T13:11:04;1008.65;;;907.28;;
17197;SDS011;8715;51.010;6.812;2023-05-10T13:13:30;1007.10;;;906.08;;
17197;SDS011;8715;51.010;6.812;2023-05-10T13:15:56;1006.88;;;905.90;;
17197;SDS011;8715;51.010;6.812;2023-05-10T13:18:23;1006.75;;;905.65;;
17197;SDS011;8715;51.010;6.812;2023-05-10T13:20:51;1006.72;;;905.30;;
17197;SDS011;8715;51.010;6.812;2023-05-10T13:23:17;1009.80;;;908.30;;
17197;SDS011;8715;51.010;6.812;2023-05-10T13:25:45;1009.85;;;907.78;;
17197;SDS011;8715;51.010;6.812;2023-05-10T13:28:11;1011.30;;;908.78;;
17197;SDS011;8715;51.010;6.812;2023-05-10T13:30:37;1007.13;;;905.28;;
17197;SDS011;8715;51.010;6.812;2023-05-10T13:33:04;1011.45;;;909.47;;
17197;SDS011;8715;51.010;6.812;2023-05-10T13:35:30;1012.33;;;910.03;;
17197;SDS011;8715;51.010;6.812;2023-05-10T13:37:56;1011.53;;;908.85;;
17197;SDS011;8715;51.010;6.812;2023-05-10T13:40:23;1013.40;;;909.97;;
17197;SDS011;8715;51.010;6.812;2023-05-10T13:42:50;1010.47;;;907.72;;
17197;SDS011;8715;51.010;6.812;2023-05-10T13:45:18;1006.30;;;902.80;;
17197;SDS011;8715;51.010;6.812;2023-05-10T13:47:44;1013.05;;;909.65;;
17197;SDS011;8715;51.010;6.812;2023-05-10T13:50:10;1011.10;;;908.40;;
17197;SDS011;8715;51.010;6.812;2023-05-10T13:52:37;1010.50;;;908.15;;
17197;SDS011;8715;51.010;6.812;2023-05-10T13:55:03;1010.25;;;907.75;;
17197;SDS011;8715;51.010;6.812;2023-05-10T13:57:30;1012.35;;;909.72;;
17197;SDS011;8715;51.010;6.812;2023-05-10T13:59:58;1003.40;;;900.47;;
17197;SDS011;8715;51.010;6.812;2023-05-10T14:02:24;1010.83;;;908.42;;
17197;SDS011;8715;51.010;6.812;2023-05-10T14:04:52;1012.85;;;909.42;;
17197;SDS011;8715;51.010;6.812;2023-05-10T14:07:18;1013.10;;;909.83;;
17197;SDS011;8715;51.010;6.812;2023-05-10T14:09:45;1010.28;;;907.53;;
17197;SDS011;8715;51.010;6.812;2023-05-10T14:12:11;1005.42;;;901.47;;
17197;SDS011;8715;51.010;6.812;2023-05-10T14:14:39;1013.78;;;910.00;;